createdAt,value
2017-07-26T00:02:17.082Z,0
2017-07-26T00:04:32.577Z,0
2017-07-26T00:06:47.942Z,0
2017-07-26T00:09:11.683Z,0
2017-07-26T00:11:35.493Z,0
2017-07-26T00:13:50.832Z,0
2017-07-26T00:16:14.607Z,0
2017-07-26T00:18:29.952Z,0
2017-07-26T00:20:53.801Z,0
2017-07-26T00:23:09.154Z,0
2017-07-26T00:25:24.504Z,0
2017-07-26T00:27:48.316Z,0
2017-07-26T00:30:12.090Z,0
2017-07-26T00:32:35.867Z,0
2017-07-26T00:34:59.663Z,0
2017-07-26T00:37:23.532Z,0
2017-07-26T00:39:47.423Z,0
2017-07-26T00:44:21.026Z,0
2017-07-26T00:46:36.427Z,0
2017-07-26T00:49:00.249Z,0
2017-07-26T00:51:15.650Z,0
2017-07-26T00:53:39.467Z,0
2017-07-26T00:56:03.308Z,0
2017-07-26T00:58:27.185Z,0
2017-07-26T01:00:51.085Z,0
2017-07-26T01:07:09.108Z,0
2017-07-26T01:09:24.504Z,0
2017-07-26T01:11:48.321Z,0
2017-07-26T01:14:03.700Z,0
2017-07-26T01:16:27.496Z,0
2017-07-26T01:18:51.284Z,0
2017-07-26T01:21:06.641Z,0
2017-07-26T01:23:21.951Z,0
2017-07-26T01:25:45.733Z,0
2017-07-26T01:28:09.623Z,0
2017-07-26T01:30:33.340Z,0
2017-07-26T01:36:51.490Z,0
2017-07-26T01:39:15.301Z,0
2017-07-26T01:41:39.087Z,0
2017-07-26T01:43:54.460Z,0
2017-07-26T01:46:18.257Z,0
2017-07-26T01:48:42.028Z,0
2017-07-26T01:50:57.405Z,0
2017-07-26T01:53:21.203Z,0
2017-07-26T01:55:45.101Z,0
2017-07-26T01:58:08.959Z,0
2017-07-26T02:00:24.321Z,0
2017-07-26T02:02:39.696Z,0
2017-07-26T02:05:03.592Z,0
2017-07-26T02:07:19.040Z,0
2017-07-26T02:09:42.841Z,0
2017-07-26T02:11:49.888Z,0
2017-07-26T02:16:15.124Z,0
2017-07-26T02:18:38.912Z,0
2017-07-26T02:20:54.239Z,0
2017-07-26T02:23:09.618Z,0
2017-07-26T02:27:09.707Z,0
2017-07-26T02:29:33.481Z,0
2017-07-26T02:31:48.823Z,0
2017-07-26T02:34:04.164Z,0
2017-07-26T02:36:19.516Z,0
2017-07-26T02:38:43.273Z,0
2017-07-26T02:41:07.049Z,0
2017-07-26T02:43:30.848Z,0
2017-07-26T02:45:54.623Z,0
2017-07-26T02:48:10.078Z,0
2017-07-26T02:50:33.857Z,0
2017-07-26T02:52:57.611Z,0
2017-07-26T02:55:21.439Z,0
2017-07-26T02:57:45.338Z,0
2017-07-26T03:00:09.078Z,0
2017-07-26T03:02:32.775Z,0
2017-07-26T03:04:48.197Z,0
2017-07-26T03:07:11.990Z,0
2017-07-26T03:09:27.350Z,0
2017-07-26T03:14:00.972Z,0
2017-07-26T03:18:17.764Z,0
2017-07-26T03:20:41.540Z,0
2017-07-26T03:23:05.298Z,0
2017-07-26T03:25:29.045Z,0
2017-07-26T03:27:52.816Z,0
2017-07-26T03:30:08.183Z,0
2017-07-26T03:32:31.951Z,0
2017-07-26T03:34:55.717Z,0
2017-07-26T03:37:19.531Z,0
2017-07-26T03:39:44.972Z,0
2017-07-26T03:42:08.803Z,0
2017-07-26T03:44:32.583Z,0
2017-07-26T03:46:47.926Z,0
2017-07-26T03:49:03.323Z,0
2017-07-26T03:51:28.437Z,0
2017-07-26T03:53:43.915Z,0
2017-07-26T03:56:07.692Z,0
2017-07-26T03:58:31.582Z,0
2017-07-26T04:02:57.272Z,0
2017-07-26T04:05:21.067Z,0
2017-07-26T04:09:37.731Z,0
2017-07-26T04:12:01.528Z,0
2017-07-26T04:14:25.302Z,0
2017-07-26T04:16:23.758Z,0
2017-07-26T04:18:47.484Z,0
2017-07-26T04:21:02.831Z,0
2017-07-26T04:25:27.966Z,0
2017-07-26T04:27:51.744Z,0
2017-07-26T04:30:07.058Z,0
2017-07-26T04:32:30.791Z,0
2017-07-26T04:34:54.528Z,0
2017-07-26T04:37:19.677Z,0
2017-07-26T04:39:41.976Z,0
2017-07-26T04:44:15.525Z,5
2017-07-26T04:46:30.847Z,5
2017-07-26T04:48:54.568Z,5
2017-07-26T04:51:18.304Z,5
2017-07-26T04:53:42.050Z,5
2017-07-26T04:56:05.807Z,5
2017-07-26T04:58:29.624Z,5
2017-07-26T05:00:53.398Z,5
2017-07-26T05:03:17.169Z,5
2017-07-26T05:05:40.897Z,5
2017-07-26T05:08:04.735Z,5
2017-07-26T05:12:30.047Z,5
2017-07-26T05:14:45.357Z,5
2017-07-26T05:17:00.683Z,5
2017-07-26T05:19:24.434Z,10
2017-07-26T05:21:39.742Z,10
2017-07-26T05:23:55.090Z,10
2017-07-26T05:26:18.894Z,10
2017-07-26T05:28:42.685Z,10
2017-07-26T05:30:58.159Z,10
2017-07-26T05:33:21.910Z,10
2017-07-26T05:35:45.672Z,10
2017-07-26T05:38:10.531Z,10
2017-07-26T05:40:34.294Z,10
2017-07-26T05:42:58.473Z,10
2017-07-26T05:47:24.823Z,10
2017-07-26T05:49:40.219Z,10
2017-07-26T05:52:03.988Z,5
2017-07-26T05:54:27.759Z,5
2017-07-26T05:56:51.558Z,5
2017-07-26T05:59:15.374Z,5
2017-07-26T06:01:39.175Z,5
2017-07-26T06:03:54.566Z,5
2017-07-26T06:06:09.972Z,5
2017-07-26T06:08:33.802Z,10
2017-07-26T06:10:49.211Z,10
2017-07-26T06:13:13.046Z,10
2017-07-26T06:15:37.676Z,10
2017-07-26T06:18:01.507Z,10
2017-07-26T06:20:25.352Z,10
2017-07-26T06:22:49.151Z,15
2017-07-26T06:25:13.004Z,15
2017-07-26T06:27:36.873Z,10
2017-07-26T06:29:52.292Z,10
2017-07-26T06:32:07.713Z,5
2017-07-26T06:34:31.569Z,5
2017-07-26T06:36:55.426Z,5
2017-07-26T06:41:29.594Z,10
2017-07-26T06:43:53.470Z,15
2017-07-26T06:46:17.264Z,30
2017-07-26T06:48:41.073Z,55
2017-07-26T06:50:56.502Z,65
2017-07-26T06:53:20.303Z,65
2017-07-26T06:57:20.478Z,50
2017-07-26T06:59:44.374Z,45
2017-07-26T07:01:59.874Z,35
2017-07-26T07:04:23.727Z,30
2017-07-26T07:06:47.556Z,35
2017-07-26T07:09:12.480Z,25
2017-07-26T07:11:36.371Z,20
2017-07-26T07:13:51.853Z,15
2017-07-26T07:16:17.751Z,10
2017-07-26T07:18:42.659Z,10
2017-07-26T07:21:07.558Z,10
2017-07-26T07:23:23.051Z,10
2017-07-26T07:25:38.513Z,10
2017-07-26T07:28:02.436Z,10
2017-07-26T07:30:17.933Z,15
2017-07-26T07:32:41.767Z,20
2017-07-26T07:35:05.704Z,15
2017-07-26T07:37:29.572Z,15
2017-07-26T07:41:38.375Z,20
2017-07-26T07:43:53.829Z,20
2017-07-26T07:46:17.695Z,25
2017-07-26T07:48:33.065Z,30
2017-07-26T07:50:56.946Z,25
2017-07-26T07:53:20.779Z,25
2017-07-26T07:55:36.278Z,30
2017-07-26T07:58:00.143Z,25
2017-07-26T08:00:24.027Z,20
2017-07-26T08:02:47.952Z,25
2017-07-26T08:05:11.779Z,25
2017-07-26T08:07:35.641Z,20
2017-07-26T08:10:00.439Z,20
2017-07-26T08:12:24.328Z,15
2017-07-26T08:14:48.218Z,15
2017-07-26T08:17:12.111Z,20
2017-07-26T08:19:35.975Z,25
2017-07-26T08:21:59.866Z,25
2017-07-26T08:24:23.732Z,20
2017-07-26T08:26:47.622Z,20
2017-07-26T08:29:11.482Z,25
2017-07-26T08:31:35.349Z,25
2017-07-26T08:33:59.178Z,30
2017-07-26T08:36:23.009Z,30
2017-07-26T08:38:46.889Z,35
2017-07-26T08:41:03.322Z,35
2017-07-26T08:43:18.833Z,35
2017-07-26T08:45:42.797Z,35
2017-07-26T08:48:06.701Z,40
2017-07-26T08:50:23.191Z,45
2017-07-26T08:52:48.115Z,45
2017-07-26T08:55:12.068Z,45
2017-07-26T08:57:36.015Z,50
2017-07-26T08:59:51.488Z,60
2017-07-26T09:02:15.459Z,60
2017-07-26T09:04:30.971Z,65
2017-07-26T09:06:54.906Z,70
2017-07-26T09:09:19.871Z,85
2017-07-26T09:11:43.847Z,90
2017-07-26T09:14:07.856Z,95
2017-07-26T09:16:31.833Z,80
2017-07-26T09:18:57.861Z,80
2017-07-26T09:23:33.326Z,90
2017-07-26T09:25:57.378Z,95
2017-07-26T09:28:21.388Z,115
2017-07-26T09:30:45.465Z,135
2017-07-26T09:33:09.515Z,125
2017-07-26T09:35:33.600Z,115
2017-07-26T09:37:57.671Z,140
2017-07-26T09:40:21.742Z,120
2017-07-26T09:42:45.754Z,125
2017-07-26T09:45:10.950Z,115
2017-07-26T09:47:35.066Z,150
2017-07-26T09:49:59.347Z,150
2017-07-26T09:52:23.605Z,155
2017-07-26T09:54:47.737Z,145
2017-07-26T09:57:11.978Z,175
2017-07-26T09:59:36.229Z,170
2017-07-26T10:01:52.075Z,175
2017-07-26T10:04:16.427Z,170
2017-07-26T10:06:40.789Z,165
2017-07-26T10:09:05.183Z,145
2017-07-26T10:11:29.555Z,120
2017-07-26T10:13:53.876Z,85
2017-07-26T10:16:18.273Z,65
2017-07-26T10:18:43.639Z,55
2017-07-26T10:21:07.837Z,50
2017-07-26T10:23:32.023Z,55
2017-07-26T10:25:47.806Z,60
2017-07-26T10:28:12.010Z,60
2017-07-26T10:30:36.196Z,70
2017-07-26T10:33:00.384Z,80
2017-07-26T10:35:25.524Z,90
2017-07-26T10:37:50.779Z,85
2017-07-26T10:40:14.905Z,80
2017-07-26T10:42:39.037Z,75
2017-07-26T10:45:03.207Z,60
2017-07-26T10:47:27.393Z,55
2017-07-26T10:49:51.521Z,55
2017-07-26T10:52:15.729Z,60
2017-07-26T10:54:39.838Z,95
2017-07-26T10:57:04.083Z,105
2017-07-26T10:59:28.028Z,135
2017-07-26T11:04:02.756Z,150
2017-07-26T11:06:27.011Z,125
2017-07-26T11:08:51.281Z,140
2017-07-26T11:13:26.033Z,135
2017-07-26T11:15:50.349Z,145
2017-07-26T11:18:22.499Z,155
2017-07-26T11:20:49.999Z,125
2017-07-26T11:23:13.447Z,125
2017-07-26T11:25:37.819Z,110
2017-07-26T11:28:02.161Z,90
2017-07-26T11:30:26.522Z,85
2017-07-26T11:32:33.923Z,80
2017-07-26T11:34:58.236Z,75
2017-07-26T11:37:14.041Z,60
2017-07-26T11:39:29.871Z,50
2017-07-26T11:41:54.106Z,30
2017-07-26T11:44:18.370Z,25
2017-07-26T11:48:53.049Z,20
2017-07-26T11:51:17.228Z,15
2017-07-26T11:53:41.330Z,15
2017-07-26T11:56:05.440Z,15
2017-07-26T11:58:21.139Z,20
2017-07-26T12:00:45.247Z,20
2017-07-26T12:03:00.880Z,20
2017-07-26T12:05:16.511Z,20
2017-07-26T12:07:23.710Z,25
2017-07-26T12:09:47.798Z,40
2017-07-26T12:12:11.868Z,55
2017-07-26T12:14:35.869Z,80
2017-07-26T12:16:59.887Z,95
2017-07-26T12:19:24.010Z,100
2017-07-26T12:21:48.060Z,80
2017-07-26T12:24:12.227Z,60
2017-07-26T12:26:36.417Z,45
2017-07-26T12:29:00.619Z,30
2017-07-26T12:31:24.734Z,25
2017-07-26T12:33:48.827Z,20
2017-07-26T12:36:13.033Z,20
2017-07-26T12:38:37.147Z,15
2017-07-26T12:41:01.239Z,20
2017-07-26T12:43:25.291Z,25
2017-07-26T12:45:49.347Z,25
2017-07-26T12:48:13.417Z,30
2017-07-26T12:50:37.580Z,30
2017-07-26T12:53:01.618Z,30
2017-07-26T12:55:25.687Z,30
2017-07-26T12:57:49.734Z,30
2017-07-26T13:00:14.828Z,25
2017-07-26T13:02:39.929Z,30
2017-07-26T13:05:04.012Z,35
2017-07-26T13:07:28.123Z,40
2017-07-26T13:09:52.276Z,50
2017-07-26T13:12:16.321Z,55
2017-07-26T13:14:40.430Z,55
2017-07-26T13:17:06.558Z,50
2017-07-26T13:19:30.640Z,50
2017-07-26T13:21:54.764Z,60
2017-07-26T13:24:18.948Z,70
2017-07-26T13:26:44.142Z,70
2017-07-26T13:29:08.312Z,65
2017-07-26T13:31:32.537Z,60
2017-07-26T13:34:05.402Z,55
2017-07-26T13:36:29.631Z,55
2017-07-26T13:38:53.871Z,55
2017-07-26T13:41:18.049Z,55
2017-07-26T13:43:42.339Z,65
2017-07-26T13:46:06.515Z,70
2017-07-26T13:48:30.791Z,60
2017-07-26T13:50:55.992Z,55
2017-07-26T13:53:20.145Z,45
2017-07-26T13:55:44.424Z,35
2017-07-26T13:58:08.692Z,45
2017-07-26T14:00:34.932Z,50
2017-07-26T14:02:59.208Z,55
2017-07-26T14:05:23.394Z,60
2017-07-26T14:07:47.652Z,55
2017-07-26T14:10:11.878Z,50
2017-07-26T14:12:37.111Z,40
2017-07-26T14:15:02.376Z,30
2017-07-26T14:17:26.637Z,30
2017-07-26T14:19:50.856Z,30
2017-07-26T14:22:15.060Z,30
2017-07-26T14:24:41.305Z,35
2017-07-26T14:27:05.556Z,35
2017-07-26T14:29:29.791Z,35
2017-07-26T14:31:54.059Z,45
2017-07-26T14:36:11.823Z,70
2017-07-26T14:38:36.101Z,65
2017-07-26T14:41:00.402Z,65
2017-07-26T14:43:24.726Z,70
2017-07-26T14:45:49.421Z,65
2017-07-26T14:48:13.673Z,55
2017-07-26T14:50:37.768Z,55
2017-07-26T14:53:02.079Z,50
2017-07-26T14:55:26.491Z,45
2017-07-26T14:57:50.840Z,40
2017-07-26T15:00:15.171Z,35
2017-07-26T15:02:39.485Z,40
2017-07-26T15:05:03.778Z,45
2017-07-26T15:07:28.104Z,55
2017-07-26T15:11:53.843Z,60
2017-07-26T15:14:18.169Z,65
2017-07-26T15:16:42.469Z,65
2017-07-26T15:19:06.829Z,60
2017-07-26T15:21:31.176Z,55
2017-07-26T15:23:55.483Z,45
2017-07-26T15:26:11.445Z,40
2017-07-26T15:28:35.760Z,35
2017-07-26T15:31:00.069Z,35
2017-07-26T15:33:24.383Z,35
2017-07-26T15:35:49.749Z,35
2017-07-26T15:38:15.091Z,35
2017-07-26T15:40:39.356Z,40
2017-07-26T15:43:03.640Z,45
2017-07-26T15:45:11.134Z,50
2017-07-26T15:47:26.977Z,50
2017-07-26T15:49:42.872Z,50
2017-07-26T15:51:58.714Z,55
2017-07-26T15:54:23.045Z,55
2017-07-26T15:56:38.950Z,55
2017-07-26T15:59:03.239Z,60
2017-07-26T16:01:27.536Z,55
2017-07-26T16:03:53.109Z,55
2017-07-26T16:06:17.346Z,50
2017-07-26T16:10:35.218Z,60
2017-07-26T16:12:51.169Z,45
2017-07-26T16:15:15.565Z,50
2017-07-26T16:17:39.925Z,45
2017-07-26T16:20:04.288Z,50
2017-07-26T16:22:28.670Z,55
2017-07-26T16:24:52.960Z,55
2017-07-26T16:27:17.344Z,55
2017-07-26T16:29:24.839Z,55
2017-07-26T16:31:40.706Z,60
2017-07-26T16:34:05.100Z,55
2017-07-26T16:36:29.510Z,55
2017-07-26T16:38:54.956Z,55
2017-07-26T16:41:19.337Z,60
2017-07-26T16:43:43.686Z,55
2017-07-26T16:46:15.100Z,55
2017-07-26T16:48:31.045Z,60
2017-07-26T16:51:01.735Z,55
2017-07-26T16:53:26.353Z,55
2017-07-26T16:57:34.147Z,65
2017-07-26T16:59:58.574Z,65
2017-07-26T17:02:22.938Z,60
2017-07-26T17:04:39.007Z,60
2017-07-26T17:07:03.427Z,60
2017-07-26T17:09:27.822Z,45
2017-07-26T17:11:52.252Z,45
2017-07-26T17:14:08.249Z,55
2017-07-26T17:16:24.196Z,55
2017-07-26T17:18:40.131Z,55
2017-07-26T17:20:56.048Z,55
2017-07-26T17:23:20.510Z,55
2017-07-26T17:25:45.009Z,55
2017-07-26T17:30:02.993Z,50
2017-07-26T17:32:27.533Z,50
2017-07-26T17:34:51.972Z,50
2017-07-26T17:37:16.276Z,50
2017-07-26T17:39:40.796Z,45
2017-07-26T17:42:05.220Z,45
2017-07-26T17:44:29.616Z,45
2017-07-26T17:46:54.021Z,40
2017-07-26T17:49:18.519Z,35
2017-07-26T17:51:42.998Z,35
2017-07-26T17:54:07.353Z,35
2017-07-26T17:56:31.761Z,30
2017-07-26T17:58:56.156Z,30
2017-07-26T18:01:20.452Z,25
2017-07-26T18:03:44.723Z,25
2017-07-26T18:06:09.051Z,25
2017-07-26T18:08:33.374Z,20
2017-07-26T18:10:58.776Z,20
2017-07-26T18:13:23.026Z,15
2017-07-26T18:15:47.337Z,15
2017-07-26T18:18:11.617Z,15
2017-07-26T18:20:35.856Z,15
2017-07-26T18:22:51.631Z,15
2017-07-26T18:25:15.905Z,10
2017-07-26T18:27:40.149Z,10
2017-07-26T18:29:55.915Z,10
2017-07-26T18:32:20.178Z,10
2017-07-26T18:34:44.372Z,10
2017-07-26T18:37:08.598Z,10
2017-07-26T18:41:43.221Z,5
2017-07-26T18:44:07.429Z,5
2017-07-26T18:46:23.169Z,5
2017-07-26T18:48:47.287Z,5
2017-07-26T18:51:11.475Z,5
2017-07-26T18:53:35.676Z,5
2017-07-26T18:55:59.873Z,5
2017-07-26T18:58:23.973Z,5
2017-07-26T19:00:48.098Z,5
2017-07-26T19:03:12.222Z,0
2017-07-26T19:07:46.833Z,0
2017-07-26T19:10:11.004Z,0
2017-07-26T19:12:35.170Z,0
2017-07-26T19:14:59.318Z,0
2017-07-26T19:17:23.427Z,0
2017-07-26T19:19:47.678Z,0
2017-07-26T19:22:11.824Z,0
2017-07-26T19:24:35.951Z,0
2017-07-26T19:27:00.001Z,0
2017-07-26T19:29:24.083Z,0
2017-07-26T19:31:48.221Z,0
2017-07-26T19:34:12.340Z,0
2017-07-26T19:36:36.444Z,0
2017-07-26T19:39:00.571Z,0
2017-07-26T19:41:24.696Z,0
2017-07-26T19:43:48.825Z,0
2017-07-26T19:46:13.005Z,0
2017-07-26T19:48:37.203Z,0
2017-07-26T19:51:01.400Z,0
2017-07-26T19:53:25.628Z,0
2017-07-26T19:57:33.454Z,0
2017-07-26T19:59:53.090Z,0
2017-07-26T20:02:24.857Z,0
2017-07-26T20:04:48.866Z,0
2017-07-26T20:07:13.644Z,0
2017-07-26T20:09:39.718Z,0
2017-07-26T20:12:03.972Z,0
2017-07-26T20:14:35.886Z,0
2017-07-26T20:16:59.964Z,0
2017-07-26T20:19:24.098Z,0
2017-07-26T20:21:48.152Z,0
2017-07-26T20:24:12.180Z,0
2017-07-26T20:26:36.362Z,0
2017-07-26T20:29:01.256Z,0
2017-07-26T20:33:12.148Z,0
2017-07-26T20:39:01.818Z,0
2017-07-26T20:41:28.315Z,0
2017-07-26T20:43:52.224Z,0
2017-07-26T20:46:16.056Z,0
2017-07-26T20:48:40.161Z,0
2017-07-26T20:51:21.521Z,0
2017-07-26T20:53:45.610Z,0
2017-07-26T20:56:09.955Z,0
2017-07-26T20:58:34.055Z,0
2017-07-26T21:00:58.274Z,0
2017-07-26T21:03:22.137Z,0
2017-07-26T21:05:46.158Z,0
2017-07-26T21:08:12.178Z,0
2017-07-26T21:12:13.035Z,0
2017-07-26T21:14:37.385Z,0
2017-07-26T21:17:01.253Z,0
2017-07-26T21:19:25.265Z,0
2017-07-26T21:21:49.540Z,0
2017-07-26T21:24:13.475Z,0
2017-07-26T21:28:13.725Z,0
2017-07-26T21:32:49.003Z,0
2017-07-26T21:35:13.046Z,0
2017-07-26T21:37:37.010Z,0
2017-07-26T21:40:01.013Z,0
2017-07-26T21:42:25.007Z,0
2017-07-26T21:44:48.999Z,0
2017-07-26T21:47:14.959Z,0
2017-07-26T21:49:45.844Z,0
2017-07-26T21:52:09.819Z,0
2017-07-26T21:54:33.745Z,0
2017-07-26T21:56:57.733Z,0
2017-07-26T21:59:21.653Z,0
2017-07-26T22:03:21.813Z,0
2017-07-26T22:05:45.807Z,0
2017-07-26T22:08:09.851Z,0
2017-07-26T22:10:33.813Z,0
2017-07-26T22:12:57.746Z,0
2017-07-26T22:16:57.895Z,0
2017-07-26T22:19:21.874Z,0
2017-07-26T22:21:45.851Z,0
2017-07-26T22:24:09.791Z,0
2017-07-26T22:26:33.766Z,0
2017-07-26T22:31:08.095Z,0
2017-07-26T22:33:32.065Z,0
2017-07-26T22:35:56.015Z,0
2017-07-26T22:38:11.554Z,0
2017-07-26T22:40:35.498Z,0
2017-07-26T22:42:59.460Z,0
2017-07-26T22:45:23.381Z,0
2017-07-26T22:47:47.314Z,0
2017-07-26T22:50:12.289Z,0
2017-07-26T22:52:36.251Z,0
2017-07-26T22:55:00.205Z,0
2017-07-26T22:57:24.204Z,0
2017-07-26T22:59:48.153Z,0
2017-07-26T23:03:49.104Z,0
2017-07-26T23:06:13.015Z,0
2017-07-26T23:08:36.925Z,0
2017-07-26T23:11:00.871Z,0
2017-07-26T23:13:24.830Z,0
2017-07-26T23:15:48.807Z,0
2017-07-26T23:18:12.731Z,0
2017-07-26T23:20:36.640Z,0
2017-07-26T23:23:02.604Z,0
2017-07-26T23:25:42.134Z,0
2017-07-26T23:28:06.103Z,0
2017-07-26T23:30:30.144Z,0
2017-07-26T23:32:54.104Z,0
2017-07-26T23:35:18.035Z,0
2017-07-26T23:37:41.979Z,0
2017-07-26T23:40:14.648Z,0
2017-07-26T23:42:38.651Z,0
2017-07-26T23:45:02.614Z,0
2017-07-26T23:47:26.548Z,0
2017-07-26T23:49:50.545Z,0
2017-07-26T23:52:14.508Z,0
2017-07-26T23:54:55.175Z,0
2017-07-26T23:57:19.148Z,0
2017-07-26T23:59:43.136Z,0
